Preskocit navigáciu

OPMET


SASQ32 LZMW 262100
METAR LZMC 262100Z 15012KT CAVOK 10/01 Q1007=
METAR LZSL 262100Z VRB02KT 9999 BKN026 08/07 Q1011=
METAR LZPW 262100Z AUTO 00000KT 9999 // ////// 06/05 Q1011=

FCSQ01 LZMW 261930
TAF LZMC 261930Z 2621/2706 16006KT CAVOK
TEMPO 2621/2702 16012KT=
TAF LZSL 261930Z 2621/2706 VRB03KT 9999 BKN025
TEMPO 2700/2706 5000 BR BKN010=
TAF LZPW 261930Z 2621/2706 18010KT CAVOK=

Skočiť na menu


Share